createdAt,value
2018-08-23T00:00:47.134Z,9.80
2018-08-23T00:04:49.350Z,11.67
2018-08-23T00:08:51.869Z,11.27
2018-08-23T00:12:58.430Z,10.10
2018-08-23T00:17:00.602Z,11.30
2018-08-23T00:21:03.747Z,11.67
2018-08-23T00:25:06.026Z,10.33
2018-08-23T00:29:13.902Z,11.10
2018-08-23T00:33:16.079Z,12.10
2018-08-23T00:37:18.303Z,16.23
2018-08-23T00:41:20.485Z,11.47
2018-08-23T00:45:22.660Z,10.27
2018-08-23T00:49:29.566Z,11.90
2018-08-23T00:53:32.987Z,12.43
2018-08-23T00:57:35.559Z,10.23
2018-08-23T01:01:37.740Z,11.60
2018-08-23T01:05:40.017Z,12.80
2018-08-23T01:09:44.074Z,11.80
2018-08-23T01:13:46.375Z,13.70
2018-08-23T01:17:53.202Z,13.77
2018-08-23T01:21:55.403Z,14.47
2018-08-23T01:25:57.570Z,15.37
2018-08-23T01:29:59.845Z,15.40
2018-08-23T01:34:02.018Z,15.77
2018-08-23T01:38:04.191Z,14.23
2018-08-23T01:42:06.444Z,13.73
2018-08-23T01:46:08.640Z,13.80
2018-08-23T01:50:11.571Z,14.23
2018-08-23T01:54:13.881Z,14.77
2018-08-23T01:58:16.550Z,14.23
2018-08-23T02:02:18.703Z,14.17
2018-08-23T02:06:20.927Z,13.77
2018-08-23T02:10:23.225Z,17.47
2018-08-23T02:14:25.634Z,13.60
2018-08-23T02:18:27.809Z,15.63
2018-08-23T02:22:30.122Z,15.70
2018-08-23T02:26:32.343Z,15.40
2018-08-23T02:30:49.179Z,16.30
2018-08-23T02:34:55.583Z,15.37
2018-08-23T02:38:59.923Z,14.93
2018-08-23T02:43:02.159Z,14.43
2018-08-23T02:47:04.403Z,17.07
2018-08-23T02:51:06.596Z,17.77
2018-08-23T02:55:08.779Z,17.23
2018-08-23T02:59:10.966Z,14.70
2018-08-23T03:03:13.296Z,16.27
2018-08-23T03:07:15.585Z,17.23
2018-08-23T03:11:17.747Z,16.57
2018-08-23T03:15:24.467Z,17.77
2018-08-23T03:19:26.637Z,17.40
2018-08-23T03:23:28.776Z,19.87
2018-08-23T03:27:31.279Z,18.57
2018-08-23T03:31:33.415Z,18.83
2018-08-23T03:35:35.610Z,19.33
2018-08-23T03:39:37.755Z,20.97
2018-08-23T03:43:40.052Z,19.17
2018-08-23T03:47:47.896Z,18.57
2018-08-23T03:51:50.167Z,16.97
2018-08-23T03:56:06.777Z,20.67
2018-08-23T04:00:09.147Z,20.07
2018-08-23T04:04:11.351Z,21.50
2018-08-23T04:08:13.540Z,23.50
2018-08-23T04:12:15.695Z,21.40
2018-08-23T04:16:24.147Z,19.43
2018-08-23T04:20:26.476Z,19.53
2018-08-23T04:24:28.648Z,23.33
2018-08-23T04:28:30.834Z,21.90
2018-08-23T04:32:38.648Z,18.30
2018-08-23T04:36:40.834Z,19.57
2018-08-23T04:40:52.606Z,20.13
2018-08-23T04:44:54.807Z,21.97
2018-08-23T04:48:57.026Z,21.40
2018-08-23T04:52:59.216Z,19.97
2018-08-23T04:57:01.354Z,23.60
2018-08-23T05:01:03.565Z,22.10
2018-08-23T05:05:05.791Z,22.03
2018-08-23T05:09:08.212Z,19.97
2018-08-23T05:13:10.392Z,24.60
2018-08-23T05:17:12.587Z,19.90
2018-08-23T05:21:14.764Z,22.40
2018-08-23T05:25:16.943Z,22.90
2018-08-23T05:29:19.120Z,20.67
2018-08-23T05:33:22.251Z,20.73
2018-08-23T05:37:24.403Z,21.37
2018-08-23T05:41:26.570Z,22.77
2018-08-23T05:45:34.648Z,20.40
2018-08-23T05:49:36.852Z,21.80
2018-08-23T05:53:40.244Z,18.60
2018-08-23T05:57:42.476Z,19.37
2018-08-23T06:01:45.603Z,19.07
2018-08-23T06:05:48.442Z,17.43
2018-08-23T06:09:50.659Z,17.27
2018-08-23T06:13:52.807Z,17.27
2018-08-23T06:17:54.991Z,16.43
2018-08-23T06:21:57.225Z,16.30
2018-08-23T06:25:59.446Z,18.83
2018-08-23T06:30:01.655Z,23.90
2018-08-23T06:34:03.885Z,19.40
2018-08-23T06:38:07.350Z,15.63
2018-08-23T06:42:09.548Z,17.40
2018-08-23T06:46:11.758Z,19.63
2018-08-23T06:50:13.896Z,17.67
2018-08-23T06:54:16.042Z,15.20
2018-08-23T06:58:18.210Z,21.30
2018-08-23T07:02:20.382Z,21.73
2018-08-23T07:06:22.558Z,21.63
2018-08-23T07:10:24.750Z,21.80
2018-08-23T07:14:26.886Z,24.27
2018-08-23T07:18:30.402Z,17.63
2018-08-23T07:22:33.834Z,18.40
2018-08-23T07:26:36.007Z,19.90
2018-08-23T07:30:38.163Z,15.20
2018-08-23T07:34:45.859Z,13.23
2018-08-23T07:38:48.570Z,10.33
2018-08-23T07:42:52.015Z,12.10
2018-08-23T07:46:54.136Z,13.10
2018-08-23T07:50:56.451Z,11.87
2018-08-23T07:54:59.200Z,9.83
2018-08-23T07:59:01.364Z,10.20
2018-08-23T08:03:03.643Z,11.17
2018-08-23T08:07:09.082Z,10.43
2018-08-23T08:11:11.227Z,11.13
2018-08-23T08:15:13.475Z,13.27
2018-08-23T08:19:15.571Z,13.47
2018-08-23T08:23:17.737Z,11.80
2018-08-23T08:27:20.081Z,13.13
2018-08-23T08:31:22.100Z,13.80
2018-08-23T08:35:24.270Z,15.23
2018-08-23T08:39:26.443Z,11.93
2018-08-23T08:43:28.583Z,13.20
2018-08-23T08:47:31.571Z,18.67
2018-08-23T08:51:33.779Z,12.40
2018-08-23T08:55:36.003Z,10.97
2018-08-23T08:59:39.171Z,12.40
2018-08-23T09:03:41.369Z,11.03
2018-08-23T09:07:44.011Z,13.43
2018-08-23T09:11:46.236Z,13.50
2018-08-23T09:15:49.458Z,11.37
2018-08-23T09:20:02.003Z,12.47
2018-08-23T09:24:23.374Z,12.40
2018-08-23T09:28:25.950Z,14.03
2018-08-23T09:32:29.543Z,13.67
2018-08-23T09:36:31.714Z,13.57
2018-08-23T09:40:33.893Z,12.27
2018-08-23T09:45:12.564Z,10.40
2018-08-23T09:49:14.766Z,13.10
2018-08-23T09:53:22.864Z,16.33
2018-08-23T09:57:25.592Z,10.23
2018-08-23T10:01:33.441Z,11.70
2018-08-23T10:05:46.664Z,14.17
2018-08-23T10:11:57.578Z,12.80
2018-08-23T10:16:05.413Z,11.93
2018-08-23T10:20:13.399Z,15.17
2018-08-23T10:24:21.351Z,12.37
2018-08-23T10:28:25.823Z,15.33
2018-08-23T10:32:28.038Z,14.80
2018-08-23T10:36:30.223Z,13.43
2018-08-23T10:40:32.427Z,12.93
2018-08-23T10:44:34.631Z,13.07
2018-08-23T10:48:36.789Z,14.77
2018-08-23T10:52:39.135Z,11.73
2018-08-23T10:56:42.391Z,13.70
2018-08-23T11:00:44.662Z,15.17
2018-08-23T11:04:46.848Z,12.10
2018-08-23T11:08:54.811Z,10.63
2018-08-23T11:13:02.675Z,9.73
2018-08-23T11:17:10.654Z,14.73
2018-08-23T11:21:15.867Z,13.90
2018-08-23T11:25:18.075Z,14.33
2018-08-23T11:29:21.288Z,11.80
2018-08-23T11:33:23.498Z,13.10
2018-08-23T11:37:25.711Z,12.83
2018-08-23T11:41:27.878Z,12.20
2018-08-23T11:45:30.089Z,11.57
2018-08-23T11:49:32.251Z,12.57
2018-08-23T11:53:34.720Z,9.87
2018-08-23T11:57:36.751Z,8.27
2018-08-23T12:01:39.045Z,8.00
2018-08-23T12:05:41.314Z,8.53
2018-08-23T12:09:43.612Z,7.17
2018-08-23T12:13:47.783Z,7.93
2018-08-23T12:17:51.621Z,8.30
2018-08-23T12:21:54.154Z,7.70
2018-08-23T12:25:56.593Z,7.60
2018-08-23T12:30:01.498Z,7.03
2018-08-23T12:34:06.183Z,6.77
2018-08-23T12:38:17.569Z,7.67
2018-08-23T12:42:25.803Z,7.73
2018-08-23T12:46:28.537Z,9.00
2018-08-23T12:50:30.728Z,7.53
2018-08-23T12:54:32.931Z,8.20
2018-08-23T12:58:35.486Z,7.90
2018-08-23T13:02:37.789Z,7.07
2018-08-23T13:06:39.915Z,6.17
2018-08-23T13:10:42.193Z,6.45
2018-08-23T13:14:44.472Z,6.28
2018-08-23T13:18:46.692Z,4.70
2018-08-23T13:22:48.898Z,5.13
2018-08-23T13:26:51.149Z,4.30
2018-08-23T13:30:53.558Z,5.17
2018-08-23T13:34:56.270Z,3.23
2018-08-23T13:38:58.516Z,3.97
2018-08-23T13:43:00.930Z,4.47
2018-08-23T13:47:03.172Z,2.83
2018-08-23T13:51:06.893Z,5.27
2018-08-23T13:55:09.347Z,3.80
2018-08-23T13:59:11.757Z,3.23
2018-08-23T14:03:13.760Z,3.30
2018-08-23T14:07:16.017Z,3.27
2018-08-23T14:11:18.199Z,3.83
2018-08-23T14:15:26.031Z,4.57
2018-08-23T14:19:28.315Z,6.43
2018-08-23T14:23:30.550Z,4.23
2018-08-23T14:27:32.755Z,3.57
2018-08-23T14:31:35.000Z,3.50
2018-08-23T14:35:37.207Z,4.00
2018-08-23T14:39:39.401Z,3.83
2018-08-23T14:43:41.544Z,4.13
2018-08-23T14:47:49.480Z,4.23
2018-08-23T14:51:51.640Z,4.77
2018-08-23T14:55:59.529Z,3.43
2018-08-23T15:00:01.769Z,3.77
2018-08-23T15:04:03.981Z,8.40
2018-08-23T15:08:06.242Z,3.40
2018-08-23T15:12:08.549Z,3.70
2018-08-23T15:16:10.805Z,4.30
2018-08-23T15:20:12.984Z,3.37
2018-08-23T15:24:15.210Z,3.77
2018-08-23T15:28:17.387Z,2.97
2018-08-23T15:32:19.591Z,4.20
2018-08-23T15:36:21.823Z,3.40
2018-08-23T15:40:24.074Z,3.00
2018-08-23T15:44:26.275Z,2.73
2018-08-23T15:48:28.460Z,3.07
2018-08-23T15:52:30.672Z,2.60
2018-08-23T15:56:32.942Z,3.17
2018-08-23T16:00:37.117Z,4.43
2018-08-23T16:04:39.339Z,3.07
2018-08-23T16:08:47.289Z,3.77
2018-08-23T16:12:49.495Z,3.83
2018-08-23T16:16:57.396Z,4.77
2018-08-23T16:21:00.523Z,4.30
2018-08-23T16:25:02.926Z,6.80
2018-08-23T16:29:05.190Z,2.27
2018-08-23T16:33:07.483Z,5.43
2018-08-23T16:37:09.664Z,2.90
2018-08-23T16:41:11.862Z,4.10
2018-08-23T16:45:14.114Z,2.70
2018-08-23T16:49:16.326Z,2.97
2018-08-23T16:53:18.825Z,3.03
2018-08-23T16:57:21.031Z,3.10
2018-08-23T17:01:23.235Z,3.50
2018-08-23T17:05:25.509Z,4.97
2018-08-23T17:09:27.696Z,3.60
2018-08-23T17:13:36.175Z,14.80
2018-08-23T17:17:38.494Z,3.63
2018-08-23T17:21:40.739Z,10.03
2018-08-23T17:25:42.959Z,3.23
2018-08-23T17:29:45.267Z,4.43
2018-08-23T17:33:47.467Z,4.40
2018-08-23T17:37:49.712Z,4.40
2018-08-23T17:41:51.911Z,3.20
2018-08-23T17:45:54.167Z,6.40
2018-08-23T17:49:56.426Z,3.87
2018-08-23T17:53:58.676Z,3.07
2018-08-23T17:58:00.870Z,2.87
2018-08-23T18:02:03.297Z,10.20
2018-08-23T18:06:05.478Z,7.80
2018-08-23T18:10:07.903Z,9.43
2018-08-23T18:14:10.344Z,7.20
2018-08-23T18:18:12.544Z,4.33
2018-08-23T18:22:14.752Z,3.90
2018-08-23T18:26:16.968Z,5.03
2018-08-23T18:30:19.157Z,3.43
2018-08-23T18:34:21.718Z,9.00
2018-08-23T18:38:24.435Z,4.97
2018-08-23T18:42:26.645Z,6.23
2018-08-23T18:46:28.909Z,9.37
2018-08-23T18:50:31.100Z,5.53
2018-08-23T18:54:33.411Z,6.60
2018-08-23T18:58:35.639Z,13.93
2018-08-23T19:02:37.819Z,4.70
2018-08-23T19:06:40.046Z,4.07
2018-08-23T19:10:42.270Z,6.40
2018-08-23T19:14:44.481Z,6.27
2018-08-23T19:18:46.781Z,8.60
2018-08-23T19:22:48.934Z,8.83
2018-08-23T19:35:12.123Z,13.37
2018-08-23T19:39:14.376Z,9.77
2018-08-23T19:43:16.579Z,10.87
2018-08-23T19:47:24.426Z,7.33
2018-08-23T19:51:26.650Z,10.40
2018-08-23T19:55:28.852Z,11.60
2018-08-23T19:59:31.138Z,9.77
2018-08-23T20:03:33.344Z,8.77
2018-08-23T20:07:35.677Z,9.50
2018-08-23T20:11:37.893Z,9.80
2018-08-23T20:15:40.098Z,12.50
2018-08-23T20:19:42.307Z,11.07
2018-08-23T20:23:44.544Z,9.80
2018-08-23T20:27:46.789Z,8.30
2018-08-23T20:31:49.273Z,10.20
2018-08-23T20:35:51.551Z,11.17
2018-08-23T20:39:53.841Z,8.80
2018-08-23T20:43:56.007Z,7.77
2018-08-23T20:47:58.247Z,8.70
2018-08-23T20:52:00.465Z,13.23
2018-08-23T20:56:02.698Z,8.10
2018-08-23T21:00:05.728Z,8.83
2018-08-23T21:04:08.004Z,10.43
2018-08-23T21:08:10.254Z,12.23
2018-08-23T21:12:12.429Z,10.67
2018-08-23T21:16:14.628Z,11.87
2018-08-23T21:20:17.359Z,13.80
2018-08-23T21:24:19.551Z,13.80
2018-08-23T21:28:21.724Z,13.93
2018-08-23T21:32:23.942Z,14.20
2018-08-23T21:36:26.106Z,10.37
2018-08-23T21:40:28.279Z,9.70
2018-08-23T21:44:30.527Z,11.57
2018-08-23T21:48:32.716Z,11.67
2018-08-23T21:52:34.990Z,11.03
2018-08-23T21:56:37.208Z,9.17
2018-08-23T22:00:45.174Z,7.37
2018-08-23T22:04:54.668Z,8.77
2018-08-23T22:08:56.885Z,8.93
2018-08-23T22:12:59.103Z,9.93
2018-08-23T22:17:01.291Z,11.40
2018-08-23T22:21:03.460Z,10.30
2018-08-23T22:25:05.731Z,10.63
2018-08-23T22:29:07.931Z,12.30
2018-08-23T22:33:11.979Z,14.80
2018-08-23T22:37:14.246Z,14.83
2018-08-23T22:41:16.415Z,13.37
2018-08-23T22:45:18.615Z,11.10
2018-08-23T22:49:21.123Z,11.53
2018-08-23T22:53:23.348Z,11.70
2018-08-23T22:57:25.563Z,12.83
2018-08-23T23:01:27.823Z,11.53
2018-08-23T23:05:30.110Z,12.97
2018-08-23T23:09:32.276Z,12.70
2018-08-23T23:13:34.447Z,19.20
2018-08-23T23:17:36.628Z,17.50
2018-08-23T23:21:38.823Z,18.80
2018-08-23T23:25:40.983Z,25.47
2018-08-23T23:29:43.121Z,21.60
2018-08-23T23:33:46.829Z,21.77
2018-08-23T23:37:49.014Z,27.63
2018-08-23T23:41:51.336Z,22.53
2018-08-23T23:45:54.420Z,21.93
2018-08-23T23:49:56.580Z,21.50
2018-08-23T23:53:58.756Z,24.13
2018-08-23T23:58:00.947Z,25.00
